Latest Weather Observations for Scottsdale

IDT60801

Issued at 7:05 am EDT Thursday 27 November 2014 (issued every 30 minutes, with the page automatically refreshed every 10 minutes)

About weather observations | Map of weather stations | Latest weather observations for TAS | Other Formats
Station Details ID: 091219 Name: SCOTTSDALE (WEST MINSTONE ROAD) Lat: -41.17 Lon: 147.49 Height: 197.5 m
Data from the previous 72 hours. | See also: Recent months at Scottsdale
Date/Time
EDT
Temp
°C
App
Temp
°C
Dew
Point
Rel
Hum
%
Delta-T
°C
Wind Press
QNH
hPa
Press
MSL
hPa
Rain
since 9 am
mm
Dir
 
Spd
km/h
Gust
km/h
Spd
kts
Gust
kts
27/07:00am 9.4 5.1 1.2 56 3.4 S 13 15 7 8 1022.3 - 0.0
27/06:30am 8.4 3.7 1.1 60 3.0 S 15 17 8 9 1021.9 - 0.0
27/06:00am 8.0 4.8 0.5 59 3.0 SSW 7 13 4 7 1021.7 1021.8 0.0
27/05:30am 8.1 3.7 0.1 57 3.2 SSW 13 15 7 8 1021.5 - 0.0
27/05:00am 8.6 3.7 -0.2 54 3.5 SSW 15 19 8 10 1021.2 - 0.0
27/04:30am 8.8 4.3 -0.3 53 3.6 SSW 13 17 7 9 1021.0 - 0.0
27/04:00am 7.2 3.6 0.7 63 2.6 SSW 9 13 5 7 1020.8 - 0.0
27/03:30am 7.9 3.6 0.7 60 2.9 S 13 17 7 9 1020.7 - 0.0
27/03:00am 7.6 3.3 0.9 62 2.7 SSW 13 15 7 8 1020.6 1020.6 0.0
27/02:30am 7.8 4.3 1.2 63 2.7 SSW 9 13 5 7 1020.6 - 0.0
27/02:00am 6.0 3.3 2.6 79 1.4 S 6 7 3 4 1020.4 - 0.0
27/01:30am 8.4 5.5 1.6 62 2.8 WSW 6 7 3 4 1020.4 - 0.0
27/01:00am 8.8 4.9 1.3 59 3.1 S 11 17 6 9 1020.5 - 0.0
27/12:30am 8.8 5.5 2.7 65 2.6 S 9 13 5 7 1020.4 - 0.0
27/12:00am 10.4 6.5 1.4 53 3.8 S 11 15 6 8 1020.3 1020.3 0.0
 
Date/Time
EDT
Temp
°C
App
Temp
°C
Dew
Point
Rel
Hum
%
Delta-T
°C
Wind Press
QNH
hPa
Press
MSL
hPa
Rain
since 9 am
mm
Dir
 
Spd
km/h
Gust
km/h
Spd
kts
Gust
kts
26/11:30pm 11.1 6.8 1.1 50 4.2 SSW 13 19 7 10 1020.0 - 0.0
26/11:00pm 11.7 7.4 1.0 48 4.5 SSW 13 20 7 11 1019.9 - 0.0
26/10:30pm 12.4 7.4 1.1 46 4.8 SSW 17 26 9 14 1019.8 - 0.0
26/10:00pm 12.1 7.3 2.8 53 4.1 SW 17 22 9 12 1019.5 - 0.0
26/09:30pm 11.3 9.2 6.7 73 2.2 SSW 7 9 4 5 1018.9 - 0.0
26/09:00pm 11.7 9.9 7.2 74 2.2 SE 6 9 3 5 1018.6 1018.6 0.0
26/08:30pm 13.1 9.5 6.9 66 3.0 ENE 15 20 8 11 1017.8 - 0.0
26/08:00pm 14.5 11.2 6.5 58 3.9 E 13 19 7 10 1017.2 - 0.0
26/07:30pm 17.4 11.8 1.3 34 7.2 SW 20 26 11 14 1016.5 - 0.0
26/07:00pm 18.5 13.0 0.9 30 7.9 SW 19 30 10 16 1015.9 - 0.0
26/06:30pm 18.9 13.0 -0.9 26 8.6 SW 20 28 11 15 1015.5 - 0.0
26/06:00pm 19.4 13.6 -0.3 26 8.7 SW 20 32 11 17 1015.2 1015.2 0.0
26/05:30pm 19.6 14.5 0.8 28 8.5 WSW 17 28 9 15 1014.9 - 0.0
26/05:00pm 20.1 15.1 1.4 28 8.6 SW 17 30 9 16 1014.7 - 0.0
26/04:30pm 20.3 15.8 2.4 30 8.4 SSW 15 22 8 12 1014.7 - 0.0
26/04:00pm 18.6 13.8 0.4 29 8.1 SW 15 24 8 13 1014.6 - 0.0
26/03:30pm 19.8 15.1 1.2 29 8.5 S 15 22 8 12 1014.5 - 0.0
26/03:00pm 19.8 15.6 1.5 29 8.4 S 13 20 7 11 1014.5 1014.5 0.0
26/02:30pm 18.8 14.1 0.7 29 8.1 SW 15 22 8 12 1014.4 - 0.0
26/02:00pm 18.5 14.3 1.6 32 7.7 SW 13 19 7 10 1014.3 - 0.0
26/01:30pm 18.3 13.0 1.9 33 7.5 S 19 32 10 17 1014.3 - 0.0
26/01:00pm 18.7 13.1 0.9 30 8.0 SSW 20 39 11 21 1014.3 - 0.0
26/12:30pm 18.3 13.5 2.5 35 7.3 W 17 28 9 15 1014.1 - 0.0
26/12:00pm 18.0 13.1 3.9 39 6.7 W 19 26 10 14 1014.1 1014.1 0.0
26/11:30am 16.5 11.5 3.4 41 6.1 WNW 19 33 10 18 1014.1 - 0.0
26/11:00am 16.7 11.9 4.5 44 5.8 W 19 35 10 19 1014.1 - 0.0
26/10:30am 16.2 11.3 4.1 44 5.7 W 19 32 10 17 1013.8 - 0.0
26/10:00am 15.5 10.5 4.5 48 5.2 W 20 35 11 19 1013.9 - 0.0
26/09:30am 13.9 8.1 4.2 52 4.5 W 24 39 13 21 1013.9 - 0.0
26/09:00am 14.1 8.9 5.5 56 4.1 W 22 41 12 22 1013.7 1013.7 0.2
26/08:30am 13.4 8.8 6.4 62 3.4 W 20 44 11 24 1013.4 - 0.2
26/08:00am 12.8 8.9 8.6 75 2.1 W 19 32 10 17 1013.3 - 0.2
26/07:30am 12.2 8.8 9.0 81 1.6 WNW 17 26 9 14 1013.1 - 0.2
26/07:00am 11.5 8.4 8.7 83 1.4 WNW 15 22 8 12 1013.0 - 0.2
26/06:30am 11.2 8.0 8.6 84 1.3 W 15 24 8 13 1012.8 - 0.2
26/06:00am 11.0 7.8 8.4 84 1.3 WNW 15 24 8 13 1012.7 1012.6 0.2
26/05:30am 11.0 7.8 8.4 84 1.3 WNW 15 24 8 13 1012.4 - 0.2
26/05:00am 10.8 7.9 8.2 84 1.3 WNW 13 26 7 14 1012.3 - 0.2
26/04:30am 10.7 6.7 8.1 84 1.3 WNW 19 30 10 16 1012.2 - 0.2
26/04:00am 10.7 6.4 7.8 82 1.4 WNW 20 32 11 17 1012.2 - 0.2
26/03:30am 10.5 6.7 7.4 81 1.5 WNW 17 28 9 15 1012.4 - 0.2
26/03:00am 9.7 6.5 7.0 83 1.3 W 13 20 7 11 1012.8 1012.7 0.2
26/02:30am 9.3 6.7 6.3 81 1.4 W 9 13 5 7 1013.2 - 0.2
26/02:00am 8.8 6.1 5.8 81 1.4 WNW 9 11 5 6 1013.5 - 0.2
26/01:30am 8.5 5.8 5.7 82 1.3 WNW 9 13 5 7 1013.8 - 0.2
26/01:00am 8.3 5.1 5.0 80 1.5 WNW 11 15 6 8 1014.0 - 0.2
26/12:30am 8.7 4.7 4.9 77 1.7 W 15 22 8 12 1014.2 - 0.2
26/12:00am 9.0 4.6 4.8 75 1.9 WNW 17 22 9 12 1014.3 1014.3 0.2
 
Date/Time
EDT
Temp
°C
App
Temp
°C
Dew
Point
Rel
Hum
%
Delta-T
°C
Wind Press
QNH
hPa
Press
MSL
hPa
Rain
since 9 am
mm
Dir
 
Spd
km/h
Gust
km/h
Spd
kts
Gust
kts
25/11:30pm 8.9 6.1 5.2 77 1.7 WNW 9 19 5 10 1014.3 - 0.2
25/11:00pm 9.5 5.8 4.4 70 2.3 NW 13 15 7 8 1014.4 - 0.2
25/10:30pm 10.1 5.4 3.3 62 3.0 WNW 17 22 9 12 1014.3 - 0.2
25/10:00pm 10.3 7.6 3.8 64 2.9 W 7 13 4 7 1014.2 - 0.2
25/09:30pm 10.9 7.6 4.3 64 3.0 WNW 11 19 6 10 1014.0 - 0.2
25/09:00pm 11.5 8.9 3.4 57 3.6 WNW 6 13 3 7 1013.6 1013.6 0.2
25/08:30pm 12.4 7.6 2.4 50 4.4 W 17 33 9 18 1013.2 - 0.2
25/08:00pm 12.9 7.4 1.9 47 4.8 W 20 44 11 24 1012.9 - 0.2
25/07:30pm 14.0 7.6 3.2 48 4.9 W 26 43 14 23 1012.2 - 0.2
25/07:00pm 14.4 8.5 4.1 50 4.8 W 24 35 13 19 1011.5 - 0.2
25/06:30pm 15.6 10.4 3.8 45 5.5 W 20 35 11 19 1011.2 - 0.2
25/06:01pm 15.3 8.6 3.7 46 5.4 W 28 52 15 28 1010.7 - 0.2
25/06:00pm 15.4 9.2 4.1 47 5.3 W 26 52 14 28 1010.7 1010.7 0.2
25/05:30pm 16.1 9.7 5.3 48 5.2 WNW 28 50 15 27 1010.4 - 0.2
25/05:14pm 16.1 9.6 4.5 46 5.5 W 28 52 15 28 1010.3 - 0.2
25/05:00pm 15.7 9.9 6.1 53 4.7 WNW 26 44 14 24 1010.4 - 0.2
25/04:34pm 16.8 10.6 6.0 49 5.3 WNW 28 50 15 27 1010.2 - 0.2
25/04:30pm 17.2 11.7 6.1 48 5.5 WNW 24 48 13 26 1010.2 - 0.2
25/04:00pm 16.2 10.3 7.5 56 4.4 WNW 28 50 15 27 1010.2 - 0.2
25/03:30pm 16.7 9.6 5.6 48 5.4 WNW 32 52 17 28 1010.0 - 0.2
25/03:20pm 17.1 10.3 4.9 44 5.9 W 30 50 16 27 1009.8 - 0.2
25/03:00pm 18.3 12.9 6.3 45 6.0 WNW 24 37 13 20 1009.9 1009.9 0.2
25/02:30pm 17.4 10.1 2.4 36 6.9 W 30 52 16 28 1009.6 - 0.2
25/02:28pm 18.7 12.0 3.6 36 7.2 W 28 48 15 26 1009.5 - 0.2
25/02:00pm 18.9 12.6 3.9 37 7.2 W 26 46 14 25 1009.4 - 0.2
25/01:30pm 17.8 10.0 3.0 37 6.9 W 33 54 18 29 1009.1 - 0.2
25/01:05pm 18.2 11.7 4.5 40 6.6 W 28 50 15 27 1009.0 - 0.0
25/01:00pm 18.0 11.8 4.2 40 6.6 W 26 46 14 25 1009.0 - 0.0
25/12:30pm 17.2 10.5 3.6 40 6.4 W 28 46 15 25 1008.6 - 0.0
25/12:14pm 16.4 9.6 3.3 41 6.1 W 28 46 15 25 1008.6 - 0.0
25/12:00pm 17.4 12.2 5.3 45 5.9 W 22 39 12 21 1008.6 1008.5 0.0
25/11:30am 16.2 11.1 5.8 50 5.1 W 22 35 12 19 1008.3 - 0.0
25/11:00am 15.8 10.4 4.7 47 5.3 W 22 35 12 19 1008.0 - 0.0
25/10:30am 15.2 10.2 4.6 49 5.0 W 20 35 11 19 1008.0 - 0.0
25/10:00am 14.4 8.6 4.6 51 4.6 W 24 50 13 27 1007.5 - 0.0
25/09:30am 13.5 7.7 4.2 53 4.3 W 24 44 13 24 1007.3 - 0.0
25/09:00am 13.0 8.3 5.9 62 3.4 W 20 33 11 18 1006.9 1006.9 4.0
25/08:30am 12.2 7.0 5.6 64 3.1 W 22 44 12 24 1006.5 - 4.0
25/08:03am 11.2 5.0 6.1 71 2.4 W 28 52 15 28 1006.1 - 4.0
25/08:00am 11.1 5.7 6.3 72 2.3 W 24 46 13 25 1006.1 - 4.0
25/07:30am 9.9 5.4 6.8 81 1.5 W 20 30 11 16 1005.9 - 4.0
25/07:00am 9.2 5.2 6.7 84 1.2 W 17 24 9 13 1005.8 - 4.0
25/06:30am 8.7 4.1 6.3 85 1.1 W 20 35 11 19 1005.5 - 4.0
25/06:00am 8.2 3.8 6.5 89 0.8 WNW 19 24 10 13 1005.2 1005.2 4.0
25/05:30am 8.0 4.3 6.3 89 0.8 WNW 15 20 8 11 1004.9 - 4.0
25/05:00am 7.8 4.8 6.1 89 0.8 W 11 17 6 9 1004.8 - 4.0
25/04:30am 7.9 4.5 5.9 87 0.9 WNW 13 20 7 11 1004.6 - 4.0
25/04:00am 7.4 3.9 5.6 88 0.8 WNW 13 19 7 10 1004.8 - 4.0
25/03:30am 7.8 4.0 5.6 86 1.0 WNW 15 20 8 11 1005.0 - 4.0
25/03:00am 8.0 4.1 5.4 84 1.2 WNW 15 24 8 13 1005.2 1005.2 4.0
25/02:30am 8.0 4.1 5.4 84 1.2 W 15 20 8 11 1005.2 - 4.0
25/02:00am 8.0 4.4 5.1 82 1.3 W 13 20 7 11 1005.4 - 4.0
25/01:30am 8.3 4.3 5.0 80 1.5 W 15 24 8 13 1005.3 - 4.0
25/01:00am 8.8 4.0 4.6 75 1.9 W 19 35 10 19 1005.6 - 4.0
25/12:30am 8.3 5.1 5.2 81 1.4 WNW 11 17 6 9 1005.6 - 4.0
25/12:00am 8.6 5.9 5.8 82 1.3 W 9 17 5 9 1005.6 1005.6 4.0
 
Date/Time
EDT
Temp
°C
App
Temp
°C
Dew
Point
Rel
Hum
%
Delta-T
°C
Wind Press
QNH
hPa
Press
MSL
hPa
Rain
since 9 am
mm
Dir
 
Spd
km/h
Gust
km/h
Spd
kts
Gust
kts
24/11:30pm 9.2 6.2 6.0 80 1.5 WNW 11 19 6 10 1005.6 - 4.0
24/11:00pm 10.1 5.5 6.7 79 1.6 W 20 39 11 21 1005.4 - 4.0
24/10:30pm 11.0 7.7 9.4 90 0.8 W 17 28 9 15 1005.3 - 4.0
24/10:00pm 11.6 8.1 10.3 92 0.7 WNW 19 30 10 16 1005.0 - 4.0
24/09:30pm 12.0 8.6 10.7 92 0.7 WNW 19 24 10 13 1004.5 - 4.0
24/09:00pm 12.4 9.9 11.1 92 0.7 WNW 15 24 8 13 1003.7 1003.6 4.0
24/08:30pm 12.7 11.9 11.6 93 0.6 WNW 7 9 4 5 1003.2 - 4.0
24/08:00pm 12.8 11.7 12.1 95 0.4 WNW 9 13 5 7 1003.5 - 4.0
24/07:30pm 12.8 12.4 12.4 97 0.2 W 6 13 3 7 1003.2 - 4.0
24/07:00pm 12.7 13.0 12.3 97 0.2 SW 2 7 1 4 1002.9 - 4.0
24/06:30pm 12.7 12.0 12.1 96 0.3 S 7 9 4 5 1002.7 - 4.0
24/06:00pm 12.4 11.7 12.0 97 0.2 S 7 11 4 6 1002.9 1002.8 3.8
24/05:30pm 12.1 11.0 11.9 99 0.1 S 9 13 5 7 1003.2 - 3.6
24/05:00pm 12.2 11.0 11.5 95 0.4 S 9 11 5 6 1003.6 - 3.0
24/04:30pm 12.4 11.4 11.1 92 0.7 S 7 11 4 6 1004.2 - 2.6
24/04:00pm 12.2 10.9 11.3 94 0.5 SSW 9 13 5 7 1004.6 - 2.6
24/03:30pm 12.5 11.4 10.8 89 0.9 ESE 7 11 4 6 1004.8 - 2.6
24/03:00pm 12.3 9.5 11.2 93 0.6 SSE 17 20 9 11 1004.9 1004.9 2.6
24/02:30pm 12.2 10.7 10.5 89 0.9 ESE 9 15 5 8 1006.3 - 2.4
24/02:00pm 11.9 10.6 9.8 87 1.1 N 7 9 4 5 1007.6 - 2.2
24/01:30pm 12.3 10.3 10.0 86 1.2 N 11 15 6 8 1008.0 - 1.4
24/01:00pm 13.8 10.3 10.2 79 1.9 N 19 22 10 12 1008.3 - 0.6
24/12:30pm 15.8 14.0 11.0 73 2.6 NNE 11 17 6 9 1007.8 - 0.4
24/12:00pm 15.5 14.1 9.6 68 3.1 S 7 9 4 5 1008.3 1008.2 0.4
24/11:30am 15.5 15.1 9.8 69 3.0 W 2 6 1 3 1009.0 - 0.4
24/11:00am 14.9 14.6 10.0 72 2.6 NNW 2 7 1 4 1009.4 - 0.4
24/10:30am 15.6 13.8 9.3 66 3.3 N 9 11 5 6 1010.2 - 0.0
24/10:00am 15.1 13.7 10.8 75 2.3 SSW 9 15 5 8 1010.1 - 0.0
24/09:30am 15.7 14.6 10.5 71 2.8 SSW 7 9 4 5 1010.1 - 0.0
24/09:00am 14.6 13.6 11.1 79 1.9 ESE 7 11 4 6 1010.2 1010.2 0.0
24/08:30am 12.7 12.6 9.4 80 1.7 CALM 0 0 0 0 1011.1 - 0.0
24/08:00am 12.5 11.3 9.4 81 1.6 SW 6 7 3 4 1010.6 - 0.0
24/07:30am 13.0 11.7 9.9 81 1.6 E 7 9 4 5 1010.3 - 0.0

Other Formats:

Comma delimited format used in spreadsheet applications
http://www.bom.gov.au/fwo/IDT60801/IDT60801.94972.axf

JavaScript Object Notation format (JSON) in row-major order
http://www.bom.gov.au/fwo/IDT60801/IDT60801.94972.json